createdAt,value
2018-05-04T00:01:09.362Z,95438.11
2018-05-04T00:03:38.477Z,95432.34
2018-05-04T00:06:07.486Z,95436.31
2018-05-04T00:08:35.729Z,95427.53
2018-05-04T00:11:03.969Z,95431.81
2018-05-04T00:13:32.224Z,95431.82
2018-05-04T00:16:00.453Z,95433.06
2018-05-04T00:18:28.711Z,95437.23
2018-05-04T00:20:56.956Z,95441.94
2018-05-04T00:23:25.229Z,95441.08
2018-05-04T00:25:53.516Z,95442.09
2018-05-04T00:28:21.734Z,95450.55
2018-05-04T00:30:50.752Z,95450.58
2018-05-04T00:33:19.745Z,95455.36
2018-05-04T00:35:47.987Z,95448.24
2018-05-04T00:38:16.225Z,95451.47
2018-05-04T00:40:44.469Z,95450.75
2018-05-04T00:43:12.716Z,95449.63
2018-05-04T00:45:40.950Z,95455.62
2018-05-04T00:48:09.210Z,95453.02
2018-05-04T00:50:37.465Z,95456.94
2018-05-04T00:53:06.462Z,95456.41
2018-05-04T00:55:35.478Z,95454.55
2018-05-04T00:58:03.709Z,95460.39
2018-05-04T01:00:32.743Z,95460.88
2018-05-04T01:03:00.981Z,95459.92
2018-05-04T01:05:29.989Z,95462.34
2018-05-04T01:07:58.986Z,95461.68
2018-05-04T01:10:27.234Z,95463.36
2018-05-04T01:12:55.466Z,95445.64
2018-05-04T01:15:23.817Z,95448.98
2018-05-04T01:17:52.822Z,95457.03
2018-05-04T01:20:21.051Z,95449.95
2018-05-04T01:22:49.299Z,95447.31
2018-05-04T01:25:17.537Z,95449.05
2018-05-04T01:27:45.782Z,95457.92
2018-05-04T01:30:14.390Z,95452.55
2018-05-04T01:32:43.395Z,95450.36
2018-05-04T01:35:11.631Z,95460.33
2018-05-04T01:37:40.134Z,95464.66
2018-05-04T01:40:09.146Z,95454.59
2018-05-04T01:42:37.390Z,95457.73
2018-05-04T01:45:05.641Z,95453.95
2018-05-04T01:47:33.878Z,95445.61
2018-05-04T01:50:02.127Z,95451.25
2018-05-04T01:52:31.141Z,95451.16
2018-05-04T01:54:59.379Z,95454.52
2018-05-04T01:57:27.686Z,95451.88
2018-05-04T01:59:55.929Z,95446.13
2018-05-04T02:02:24.177Z,95446.03
2018-05-04T02:04:52.407Z,95452.08
2018-05-04T02:07:21.425Z,95451.28
2018-05-04T02:09:49.653Z,95453.02
2018-05-04T02:12:17.906Z,95450.49
2018-05-04T02:14:46.137Z,95453.13
2018-05-04T02:17:14.381Z,95457.30
2018-05-04T02:19:43.397Z,95462.17
2018-05-04T02:22:11.631Z,95463.22
2018-05-04T02:24:39.857Z,95464.83
2018-05-04T02:27:08.101Z,95463.50
2018-05-04T02:29:37.151Z,95461.62
2018-05-04T02:32:05.397Z,95455.76
2018-05-04T02:34:34.334Z,95458.50
2018-05-04T02:37:02.581Z,95455.23
2018-05-04T02:39:31.099Z,95452.20
2018-05-04T02:41:59.322Z,95462.86
2018-05-04T02:44:27.556Z,95449.95
2018-05-04T02:46:55.804Z,95456.30
2018-05-04T02:49:24.049Z,95455.52
2018-05-04T02:51:52.294Z,95466.08
2018-05-04T02:54:20.552Z,95462.72
2018-05-04T02:56:48.771Z,95467.13
2018-05-04T02:59:17.018Z,95473.16
2018-05-04T03:01:45.253Z,95471.98
2018-05-04T03:04:13.506Z,95473.95
2018-05-04T03:06:41.741Z,95478.84
2018-05-04T03:09:09.974Z,95473.56
2018-05-04T03:11:38.319Z,95471.59
2018-05-04T03:14:07.321Z,95471.06
2018-05-04T03:16:35.569Z,95466.69
2018-05-04T03:19:04.575Z,95469.39
2018-05-04T03:21:33.585Z,95468.48
2018-05-04T03:24:01.855Z,95465.80
2018-05-04T03:26:30.106Z,95470.37
2018-05-04T03:28:58.360Z,95472.41
2018-05-04T03:31:26.589Z,95470.00
2018-05-04T03:33:54.841Z,95469.11
2018-05-04T03:36:23.837Z,95470.05
2018-05-04T03:38:52.854Z,95477.64
2018-05-04T03:41:21.085Z,95469.36
2018-05-04T03:43:49.329Z,95472.99
2018-05-04T03:46:17.565Z,95478.53
2018-05-04T03:48:45.797Z,95476.97
2018-05-04T03:51:14.049Z,95486.27
2018-05-04T03:53:42.305Z,95494.72
2018-05-04T03:56:10.549Z,95496.30
2018-05-04T03:58:57.357Z,95488.42
2018-05-04T04:01:44.592Z,95487.95
2018-05-04T04:04:13.653Z,95488.97
2018-05-04T04:06:41.886Z,95491.00
2018-05-04T04:09:10.146Z,95498.94
2018-05-04T04:11:38.402Z,95493.28
2018-05-04T04:14:06.634Z,95505.50
2018-05-04T04:16:34.877Z,95503.03
2018-05-04T04:19:03.171Z,95507.64
2018-05-04T04:21:31.434Z,95498.34
2018-05-04T04:24:00.516Z,95502.50
2018-05-04T04:26:28.762Z,95498.86
2018-05-04T04:28:58.517Z,95501.38
2018-05-04T04:31:26.774Z,95503.66
2018-05-04T04:33:55.795Z,95513.06
2018-05-04T04:36:24.030Z,95511.49
2018-05-04T04:38:53.067Z,95509.86
2018-05-04T04:41:21.288Z,95508.92
2018-05-04T04:43:49.525Z,95507.23
2018-05-04T04:46:17.793Z,95513.47
2018-05-04T04:48:46.025Z,95515.33
2018-05-04T04:51:15.034Z,95518.08
2018-05-04T04:53:44.159Z,95521.61
2018-05-04T04:56:12.431Z,95528.98
2018-05-04T04:58:40.666Z,95530.62
2018-05-04T05:01:09.674Z,95534.58
2018-05-04T05:03:37.936Z,95533.66
2018-05-04T05:06:06.193Z,95537.88
2018-05-04T05:08:34.433Z,95540.04
2018-05-04T05:11:02.982Z,95543.25
2018-05-04T05:13:32.056Z,95540.43
2018-05-04T05:16:00.228Z,95537.53
2018-05-04T05:18:28.775Z,95537.34
2018-05-04T05:20:57.011Z,95546.68
2018-05-04T05:23:26.020Z,95544.27
2018-05-04T05:25:54.271Z,95543.88
2018-05-04T05:28:23.270Z,95547.55
2018-05-04T05:30:52.277Z,95546.05
2018-05-04T05:33:20.525Z,95545.48
2018-05-04T05:35:49.524Z,95550.67
2018-05-04T05:38:18.546Z,95541.88
2018-05-04T05:40:46.782Z,95544.52
2018-05-04T05:43:15.816Z,95554.80
2018-05-04T05:45:44.062Z,95564.09
2018-05-04T05:48:13.174Z,95559.91
2018-05-04T05:50:41.422Z,95553.78
2018-05-04T05:53:09.666Z,95562.17
2018-05-04T05:55:37.922Z,95555.70
2018-05-04T05:58:06.186Z,95554.20
2018-05-04T06:00:35.266Z,95548.27
2018-05-04T06:03:03.526Z,95548.72
2018-05-04T06:05:32.526Z,95548.53
2018-05-04T06:08:01.548Z,95556.53
2018-05-04T06:10:29.788Z,95557.80
2018-05-04T06:12:58.789Z,95558.16
2018-05-04T06:15:27.819Z,95566.02
2018-05-04T06:17:56.065Z,95573.44
2018-05-04T06:20:25.087Z,95575.05
2018-05-04T06:22:53.360Z,95570.24
2018-05-04T06:25:21.585Z,95565.86
2018-05-04T06:27:49.916Z,95570.69
2018-05-04T06:30:18.162Z,95569.23
2018-05-04T06:32:46.489Z,95568.62
2018-05-04T06:35:14.662Z,95570.06
2018-05-04T06:37:43.189Z,95568.82
2018-05-04T06:40:12.197Z,95572.82
2018-05-04T06:42:40.433Z,95576.89
2018-05-04T06:45:08.685Z,95575.13
2018-05-04T06:47:36.934Z,95575.55
2018-05-04T06:50:05.171Z,95578.23
2018-05-04T06:52:34.281Z,95577.00
2018-05-04T06:55:03.295Z,95577.53
2018-05-04T06:57:31.542Z,95585.03
2018-05-04T07:00:00.549Z,95578.45
2018-05-04T07:02:29.234Z,95574.00
2018-05-04T07:04:57.482Z,95580.86
2018-05-04T07:07:25.725Z,95577.84
2018-05-04T07:09:53.983Z,95582.08
2018-05-04T07:12:22.233Z,95572.97
2018-05-04T07:14:51.245Z,95584.41
2018-05-04T07:17:19.508Z,95588.33
2018-05-04T07:19:47.734Z,95594.49
2018-05-04T07:22:15.994Z,95589.45
2018-05-04T07:24:44.230Z,95601.55
2018-05-04T07:27:12.477Z,95599.90
2018-05-04T07:29:40.722Z,95593.02
2018-05-04T07:32:08.971Z,95595.45
2018-05-04T07:34:37.206Z,95589.69
2018-05-04T07:37:05.458Z,95589.11
2018-05-04T07:39:33.697Z,95586.36
2018-05-04T07:42:01.966Z,95586.73
2018-05-04T07:44:30.229Z,95588.34
2018-05-04T07:46:59.234Z,95593.50
2018-05-04T07:49:27.486Z,95590.84
2018-05-04T07:51:56.505Z,95593.34
2018-05-04T07:54:24.745Z,95589.11
2018-05-04T07:56:53.769Z,95593.05
2018-05-04T07:59:22.786Z,95592.56
2018-05-04T08:01:51.022Z,95593.26
2018-05-04T08:04:20.028Z,95596.50
2018-05-04T08:06:48.333Z,95600.02
2018-05-04T08:09:16.575Z,95601.11
2018-05-04T08:11:45.578Z,95598.27
2018-05-04T08:14:13.833Z,95593.85
2018-05-04T08:16:42.855Z,95595.06
2018-05-04T08:19:11.097Z,95597.98
2018-05-04T08:21:40.151Z,95602.14
2018-05-04T08:24:08.370Z,95607.74
2018-05-04T08:26:37.373Z,95606.33
2018-05-04T08:29:06.396Z,95607.27
2018-05-04T08:31:34.651Z,95609.04
2018-05-04T08:34:03.660Z,95606.86
2018-05-04T08:36:31.914Z,95601.91
2018-05-04T08:39:00.913Z,95611.02
2018-05-04T08:41:29.170Z,95612.06
2018-05-04T08:43:58.198Z,95608.93
2018-05-04T08:46:26.434Z,95613.32
2018-05-04T08:48:55.445Z,95611.57
2018-05-04T08:51:24.471Z,95607.16
2018-05-04T08:53:52.709Z,95605.28
2018-05-04T08:56:21.709Z,95609.34
2018-05-04T08:58:50.734Z,95610.69
2018-05-04T09:01:19.004Z,95610.91
2018-05-04T09:03:47.233Z,95608.78
2018-05-04T09:06:15.476Z,95606.94
2018-05-04T09:08:43.717Z,95614.61
2018-05-04T09:11:11.954Z,95617.83
2018-05-04T09:13:40.198Z,95619.07
2018-05-04T09:16:08.433Z,95621.95
2018-05-04T09:18:36.709Z,95623.41
2018-05-04T09:21:05.714Z,95619.24
2018-05-04T09:23:33.979Z,95627.47
2018-05-04T09:26:02.991Z,95618.39
2018-05-04T09:28:31.242Z,95616.89
2018-05-04T09:31:00.268Z,95621.75
2018-05-04T09:33:28.501Z,95628.32
2018-05-04T09:35:57.510Z,95620.05
2018-05-04T09:38:25.745Z,95627.56
2018-05-04T09:40:54.129Z,95631.02
2018-05-04T09:43:22.387Z,95630.00
2018-05-04T09:45:50.602Z,95636.09
2018-05-04T09:48:19.628Z,95635.63
2018-05-04T09:50:47.862Z,95630.14
2018-05-04T09:53:16.869Z,95631.80
2018-05-04T09:55:45.886Z,95633.87
2018-05-04T09:58:14.125Z,95633.39
2018-05-04T10:00:42.375Z,95631.96
2018-05-04T10:03:10.622Z,95629.80
2018-05-04T10:05:38.868Z,95637.62
2018-05-04T10:08:07.886Z,95635.17
2018-05-04T10:10:36.138Z,95633.62
2018-05-04T10:13:05.142Z,95643.78
2018-05-04T10:15:33.390Z,95641.08
2018-05-04T10:18:02.403Z,95645.52
2018-05-04T10:20:30.673Z,95642.07
2018-05-04T10:22:59.675Z,95646.03
2018-05-04T10:25:28.282Z,95647.77
2018-05-04T10:27:56.509Z,95644.38
2018-05-04T10:30:24.746Z,95634.43
2018-05-04T10:32:52.998Z,95629.27
2018-05-04T10:35:21.234Z,95635.29
2018-05-04T10:37:50.256Z,95632.23
2018-05-04T10:40:18.571Z,95630.65
2018-05-04T10:42:46.809Z,95633.65
2018-05-04T10:45:15.148Z,95627.52
2018-05-04T10:47:44.092Z,95626.50
2018-05-04T10:50:12.338Z,95632.22
2018-05-04T10:52:41.337Z,95624.73
2018-05-04T10:55:09.592Z,95626.89
2018-05-04T10:57:38.604Z,95631.72
2018-05-04T11:00:07.609Z,95629.02
2018-05-04T11:02:35.865Z,95632.23
2018-05-04T11:05:04.887Z,95626.55
2018-05-04T11:07:33.141Z,95631.28
2018-05-04T11:10:02.153Z,95633.28
2018-05-04T11:12:30.401Z,95632.98
2018-05-04T11:14:59.406Z,95641.30
2018-05-04T11:17:27.662Z,95642.29
2018-05-04T11:19:55.917Z,95638.21
2018-05-04T11:22:24.169Z,95640.95
2018-05-04T11:24:52.410Z,95637.70
2018-05-04T11:27:20.649Z,95639.30
2018-05-04T11:29:48.910Z,95635.92
2018-05-04T11:32:17.153Z,95635.58
2018-05-04T11:34:45.396Z,95642.23
2018-05-04T11:37:14.427Z,95636.02
2018-05-04T11:39:42.657Z,95639.06
2018-05-04T11:42:11.697Z,95643.55
2018-05-04T11:44:39.937Z,95642.00
2018-05-04T11:47:08.941Z,95644.42
2018-05-04T11:49:37.265Z,95658.19
2018-05-04T11:52:06.209Z,95648.61
2018-05-04T11:54:34.458Z,95658.03
2018-05-04T11:57:02.703Z,95658.06
2018-05-04T11:59:30.949Z,95653.55
2018-05-04T12:01:59.206Z,95660.03
2018-05-04T12:04:28.206Z,95662.25
2018-05-04T12:06:56.458Z,95659.75
2018-05-04T12:09:25.471Z,95662.75
2018-05-04T12:11:54.491Z,95658.53
2018-05-04T12:14:22.726Z,95668.46
2018-05-04T12:16:51.754Z,95662.02
2018-05-04T12:19:20.022Z,95656.61
2018-05-04T12:21:48.261Z,95660.64
2018-05-04T12:24:16.499Z,95656.59
2018-05-04T12:26:44.750Z,95650.75
2018-05-04T12:29:12.990Z,95650.64
2018-05-04T12:31:41.235Z,95654.66
2018-05-04T12:34:09.489Z,95654.80
2018-05-04T12:36:37.724Z,95654.19
2018-05-04T12:39:06.742Z,95651.59
2018-05-04T12:41:35.001Z,95657.20
2018-05-04T12:44:04.032Z,95652.57
2018-05-04T12:46:32.268Z,95653.28
2018-05-04T12:49:01.274Z,95658.95
2018-05-04T12:51:29.647Z,95646.55
2018-05-04T12:53:58.659Z,95647.64
2018-05-04T12:56:26.929Z,95643.20
2018-05-04T12:58:55.187Z,95640.33
2018-05-04T13:01:24.183Z,95633.48
2018-05-04T13:03:53.205Z,95633.08
2018-05-04T13:06:21.471Z,95623.57
2018-05-04T13:08:49.714Z,95625.27
2018-05-04T13:11:17.950Z,95620.63
2018-05-04T13:13:46.203Z,95615.81
2018-05-04T13:16:14.438Z,95615.07
2018-05-04T13:18:42.685Z,95604.82
2018-05-04T13:21:11.121Z,95602.67
2018-05-04T13:23:39.362Z,95606.73
2018-05-04T13:26:07.593Z,95608.02
2018-05-04T13:28:35.861Z,95593.94
2018-05-04T13:31:04.094Z,95599.94
2018-05-04T13:33:33.127Z,95595.41
2018-05-04T13:36:01.409Z,95598.48
2018-05-04T13:38:29.629Z,95597.17
2018-05-04T13:40:57.890Z,95595.44
2018-05-04T13:43:26.122Z,95593.55
2018-05-04T13:45:54.366Z,95594.52
2018-05-04T13:48:23.378Z,95599.66
2018-05-04T13:50:52.484Z,95597.78
2018-05-04T13:53:20.637Z,95593.88
2018-05-04T13:55:49.654Z,95592.38
2018-05-04T13:58:18.017Z,95586.79
2018-05-04T14:00:47.037Z,95582.88
2018-05-04T14:03:15.285Z,95586.77
2018-05-04T14:05:44.306Z,95590.09
2018-05-04T14:08:12.548Z,95581.16
2018-05-04T14:10:41.582Z,95580.17
2018-05-04T14:13:09.826Z,95580.96
2018-05-04T14:15:38.830Z,95572.89
2018-05-04T14:18:07.097Z,95572.34
2018-05-04T14:20:35.330Z,95569.27
2018-05-04T14:23:03.850Z,95578.20
2018-05-04T14:25:32.851Z,95571.44
2018-05-04T14:28:01.100Z,95576.70
2018-05-04T14:30:29.350Z,95574.05
2018-05-04T14:32:57.599Z,95578.42
2018-05-04T14:35:25.830Z,95577.05
2018-05-04T14:37:54.870Z,95575.91
2018-05-04T14:40:23.113Z,95576.88
2018-05-04T14:42:52.156Z,95568.13
2018-05-04T14:45:20.390Z,95574.77
2018-05-04T14:47:48.639Z,95571.05
2018-05-04T14:50:17.247Z,95572.53
2018-05-04T14:52:46.249Z,95573.77
2018-05-04T14:55:14.486Z,95582.01
2018-05-04T14:57:43.731Z,95575.81
2018-05-04T15:00:11.986Z,95575.46
2018-05-04T15:02:40.994Z,95570.84
2018-05-04T15:05:09.383Z,95575.34
2018-05-04T15:07:37.610Z,95568.86
2018-05-04T15:10:06.630Z,95574.83
2018-05-04T15:12:34.873Z,95577.71
2018-05-04T15:15:03.355Z,95579.61
2018-05-04T15:17:31.593Z,95583.59
2018-05-04T15:19:59.833Z,95570.47
2018-05-04T15:22:28.848Z,95570.25
2018-05-04T15:24:57.111Z,95574.34
2018-05-04T15:27:26.104Z,95560.53
2018-05-04T15:29:54.349Z,95567.19
2018-05-04T15:32:22.606Z,95569.98
2018-05-04T15:34:50.886Z,95583.19
2018-05-04T15:37:19.113Z,95571.48
2018-05-04T15:39:47.356Z,95584.00
2018-05-04T15:42:16.373Z,95583.47
2018-05-04T15:44:44.631Z,95585.25
2018-05-04T15:47:13.637Z,95591.66
2018-05-04T15:49:41.898Z,95597.70
2018-05-04T15:52:10.924Z,95592.73
2018-05-04T15:54:39.206Z,95593.23
2018-05-04T15:57:07.410Z,95587.44
2018-05-04T15:59:35.653Z,95583.52
2018-05-04T16:02:03.889Z,95582.19
2018-05-04T16:04:32.922Z,95583.84
2018-05-04T16:07:01.175Z,95583.34
2018-05-04T16:09:30.181Z,95588.53
2018-05-04T16:11:58.429Z,95589.06
2018-05-04T16:14:27.746Z,95597.45
2018-05-04T16:16:55.994Z,95604.38
2018-05-04T16:19:24.233Z,95600.14
2018-05-04T16:21:52.491Z,95595.66
2018-05-04T16:24:20.729Z,95593.78
2018-05-04T16:26:49.754Z,95604.61
2018-05-04T16:29:18.321Z,95606.21
2018-05-04T16:31:47.325Z,95605.26
2018-05-04T16:34:15.561Z,95602.92
2018-05-04T16:36:43.818Z,95610.37
2018-05-04T16:39:12.245Z,95604.02
2018-05-04T16:41:41.297Z,95607.25
2018-05-04T16:44:09.486Z,95608.02
2018-05-04T16:46:43.169Z,95606.76
2018-05-04T16:49:16.981Z,95611.36
2018-05-04T16:51:45.513Z,95613.25
2018-05-04T16:54:13.753Z,95616.59
2018-05-04T16:56:41.983Z,95617.75
2018-05-04T16:59:10.230Z,95615.77
2018-05-04T17:01:39.249Z,95620.02
2018-05-04T17:04:07.482Z,95617.98
2018-05-04T17:06:36.505Z,95622.24
2018-05-04T17:09:04.789Z,95616.25
2018-05-04T17:11:33.771Z,95621.70
2018-05-04T17:14:02.061Z,95628.32
2018-05-04T17:16:30.297Z,95623.77
2018-05-04T17:18:59.311Z,95619.61
2018-05-04T17:21:27.569Z,95627.48
2018-05-04T17:23:56.571Z,95626.22
2018-05-04T17:26:25.579Z,95625.94
2018-05-04T17:28:53.845Z,95627.28
2018-05-04T17:31:22.117Z,95635.88
2018-05-04T17:33:51.122Z,95632.67
2018-05-04T17:36:19.374Z,95634.16
2018-05-04T17:38:48.389Z,95637.70
2018-05-04T17:41:16.625Z,95644.59
2018-05-04T17:43:44.881Z,95644.06
2018-05-04T17:46:14.242Z,95644.45
2018-05-04T17:48:42.478Z,95651.06
2018-05-04T17:51:10.723Z,95649.81
2018-05-04T17:53:39.177Z,95655.96
2018-05-04T17:56:07.417Z,95651.44
2018-05-04T17:58:35.749Z,95655.81
2018-05-04T18:01:04.034Z,95658.52
2018-05-04T18:03:32.604Z,95661.38
2018-05-04T18:06:00.854Z,95662.59
2018-05-04T18:08:29.857Z,95664.49
2018-05-04T18:10:58.117Z,95668.57
2018-05-04T18:13:27.142Z,95661.31
2018-05-04T18:15:55.593Z,95669.39
2018-05-04T18:18:24.615Z,95667.42
2018-05-04T18:20:52.847Z,95672.48
2018-05-04T18:23:21.885Z,95672.48
2018-05-04T18:25:50.125Z,95674.59
2018-05-04T18:28:19.148Z,95679.59
2018-05-04T18:30:47.394Z,95677.81
2018-05-04T18:33:16.414Z,95678.73
2018-05-04T18:35:44.665Z,95684.69
2018-05-04T18:38:13.677Z,95681.45
2018-05-04T18:40:41.930Z,95688.64
2018-05-04T18:43:10.943Z,95689.72
2018-05-04T18:45:39.260Z,95695.38
2018-05-04T18:48:07.508Z,95700.44
2018-05-04T18:50:35.754Z,95705.94
2018-05-04T18:53:04.771Z,95709.96
2018-05-04T18:55:33.026Z,95713.91
2018-05-04T18:58:02.035Z,95720.62
2018-05-04T19:00:30.285Z,95728.62
2018-05-04T19:03:04.622Z,95726.08
2018-05-04T19:05:33.831Z,95732.40
2018-05-04T19:08:02.113Z,95730.53
2018-05-04T19:10:30.297Z,95732.18
2018-05-04T19:12:58.545Z,95740.92
2018-05-04T19:15:26.793Z,95734.72
2018-05-04T19:17:55.050Z,95742.67
2018-05-04T19:20:23.299Z,95741.22
2018-05-04T19:22:51.559Z,95744.75
2018-05-04T19:25:19.795Z,95745.05
2018-05-04T19:27:48.041Z,95736.52
2018-05-04T19:30:16.288Z,95738.25
2018-05-04T19:32:44.550Z,95742.30
2018-05-04T19:35:12.794Z,95740.79
2018-05-04T19:37:41.052Z,95742.81
2018-05-04T19:40:09.301Z,95746.21
2018-05-04T19:42:37.541Z,95751.48
2018-05-04T19:45:06.557Z,95753.56
2018-05-04T19:47:34.806Z,95748.61
2018-05-04T19:50:03.825Z,95752.85
2018-05-04T19:52:32.104Z,95754.12
2018-05-04T19:55:00.316Z,95752.47
2018-05-04T19:57:28.563Z,95753.42
2018-05-04T19:59:56.829Z,95759.73
2018-05-04T20:02:25.087Z,95752.34
2018-05-04T20:04:54.113Z,95756.52
2018-05-04T20:07:22.389Z,95749.23
2018-05-04T20:09:50.618Z,95753.82
2018-05-04T20:12:19.635Z,95752.74
2018-05-04T20:14:48.132Z,95746.36
2018-05-04T20:17:16.367Z,95749.13
2018-05-04T20:19:45.373Z,95749.55
2018-05-04T20:22:14.395Z,95753.13
2018-05-04T20:24:42.638Z,95741.88
2018-05-04T20:27:11.661Z,95746.64
2018-05-04T20:29:39.897Z,95743.45
2018-05-04T20:32:08.194Z,95742.31
2018-05-04T20:34:36.466Z,95739.97
2018-05-04T20:37:05.478Z,95736.87
2018-05-04T20:39:33.783Z,95743.78
2018-05-04T20:42:02.037Z,95741.09
2018-05-04T20:44:30.302Z,95748.25
2018-05-04T20:46:58.553Z,95752.41
2018-05-04T20:49:27.568Z,95744.59
2018-05-04T20:51:55.887Z,95733.89
2018-05-04T20:54:24.822Z,95743.98
2018-05-04T20:56:53.918Z,95745.42
2018-05-04T20:59:23.045Z,95747.19
2018-05-04T21:01:51.291Z,95755.45
2018-05-04T21:04:20.381Z,95752.92
2018-05-04T21:06:49.405Z,95755.36
2018-05-04T21:09:17.637Z,95759.00
2018-05-04T21:11:46.685Z,95763.75
2018-05-04T21:14:14.924Z,95772.55
2018-05-04T21:16:43.921Z,95765.92
2018-05-04T21:19:12.180Z,95774.30
2018-05-04T21:21:41.197Z,95776.30
2018-05-04T21:24:09.440Z,95780.23
2018-05-04T21:26:37.694Z,95781.05
2018-05-04T21:29:05.963Z,95780.67
2018-05-04T21:31:34.222Z,95791.98
2018-05-04T21:34:02.469Z,95791.15
2018-05-04T21:36:30.721Z,95798.06
2018-05-04T21:41:35.074Z,95801.27
2018-05-04T21:44:04.091Z,95801.11
2018-05-04T21:46:32.329Z,95789.16
2018-05-04T21:49:01.350Z,95794.45
2018-05-04T21:51:29.596Z,95789.19
2018-05-04T21:53:58.598Z,95790.28
2018-05-04T21:56:27.627Z,95793.11
2018-05-04T21:58:55.878Z,95792.97
2018-05-04T22:01:24.136Z,95796.04
2018-05-04T22:03:52.495Z,95798.38
2018-05-04T22:06:20.771Z,95799.94
2018-05-04T22:08:49.022Z,95793.48
2018-05-04T22:11:17.289Z,95799.02
2018-05-04T22:13:45.525Z,95797.58
2018-05-04T22:16:14.534Z,95799.61
2018-05-04T22:18:42.788Z,95794.45
2018-05-04T22:21:11.794Z,95807.81
2018-05-04T22:23:40.051Z,95800.39
2018-05-04T22:26:09.066Z,95804.03
2018-05-04T22:28:37.306Z,95811.34
2018-05-04T22:31:05.553Z,95814.69
2018-05-04T22:33:33.801Z,95805.77
2018-05-04T22:36:02.046Z,95804.55
2018-05-04T22:38:31.054Z,95800.51
2018-05-04T22:41:00.071Z,95793.53
2018-05-04T22:43:28.326Z,95801.20
2018-05-04T22:45:56.586Z,95801.72
2018-05-04T22:48:24.832Z,95792.90
2018-05-04T22:50:53.080Z,95793.83
2018-05-04T22:53:21.330Z,95795.02
2018-05-04T22:55:50.333Z,95795.17
2018-05-04T22:58:18.592Z,95798.28
2018-05-04T23:00:47.597Z,95804.29
2018-05-04T23:03:15.850Z,95811.84
2018-05-04T23:05:44.857Z,95810.87
2018-05-04T23:08:14.162Z,95805.52
2018-05-04T23:10:42.404Z,95807.83
2018-05-04T23:13:10.645Z,95808.22
2018-05-04T23:15:38.899Z,95808.23
2018-05-04T23:18:07.151Z,95810.73
2018-05-04T23:20:36.158Z,95815.34
2018-05-04T23:23:04.401Z,95809.47
2018-05-04T23:25:32.650Z,95812.95
2018-05-04T23:28:00.886Z,95814.70
2018-05-04T23:30:29.905Z,95809.19
2018-05-04T23:32:58.150Z,95804.42
2018-05-04T23:35:27.153Z,95807.17
2018-05-04T23:37:55.411Z,95814.96
2018-05-04T23:40:24.418Z,95808.66
2018-05-04T23:42:52.681Z,95815.02
2018-05-04T23:45:21.689Z,95799.37
2018-05-04T23:47:49.937Z,95808.84
2018-05-04T23:50:19.100Z,95809.95
2018-05-04T23:52:47.353Z,95809.63
2018-05-04T23:55:15.592Z,95815.08
2018-05-04T23:57:44.605Z,95819.88
